createdAt,value
2023-05-17T00:00:17.273Z,98386.17
2023-05-17T00:02:05.465Z,98382.60
2023-05-17T00:03:41.258Z,98381.61
2023-05-17T00:05:03.307Z,98381.67
2023-05-17T00:06:48.462Z,98378.06
2023-05-17T00:08:33.179Z,98377.65
2023-05-17T00:10:09.386Z,98380.71
2023-05-17T00:11:31.708Z,98384.24
2023-05-17T00:13:05.056Z,98385.19
2023-05-17T00:14:58.509Z,98387.90
2023-05-17T00:16:45.083Z,98388.36
2023-05-17T00:18:31.537Z,98391.22
2023-05-17T00:20:18.202Z,98392.15
2023-05-17T00:21:52.241Z,98391.19
2023-05-17T00:23:16.213Z,98387.49
2023-05-17T00:25:01.568Z,98385.20
2023-05-17T00:26:46.606Z,98389.06
2023-05-17T00:28:27.372Z,98389.15
2023-05-17T00:30:01.100Z,98393.10
2023-05-17T00:31:42.801Z,98392.73
2023-05-17T00:33:16.450Z,98394.50
2023-05-17T00:34:38.374Z,98388.13
2023-05-17T00:36:02.716Z,98392.56
2023-05-17T00:37:57.217Z,98395.04
2023-05-17T00:39:26.268Z,98391.59
2023-05-17T00:41:00.166Z,98389.56
2023-05-17T00:42:33.736Z,98390.89
2023-05-17T00:44:15.070Z,98392.55
2023-05-17T00:45:51.818Z,98396.13
2023-05-17T00:47:27.511Z,98394.71
2023-05-17T00:48:52.357Z,98394.27
2023-05-17T00:50:28.451Z,98394.52
2023-05-17T00:52:01.894Z,98399.98
2023-05-17T00:53:37.461Z,98403.84
2023-05-17T00:55:08.769Z,98405.45
2023-05-17T00:56:34.410Z,98404.89
2023-05-17T00:58:08.374Z,98409.15
2023-05-17T00:59:44.261Z,98406.16
2023-05-17T01:01:26.098Z,98404.84
2023-05-17T01:03:00.467Z,98397.58
2023-05-17T01:04:24.764Z,98404.06
2023-05-17T01:05:46.969Z,98406.71
2023-05-17T01:07:32.762Z,98407.05
2023-05-17T01:09:18.852Z,98407.55
2023-05-17T01:10:52.292Z,98409.29
2023-05-17T01:12:40.445Z,98411.77
2023-05-17T01:14:25.260Z,98409.98
2023-05-17T01:16:00.253Z,98411.58
2023-05-17T01:17:36.859Z,98411.64
2023-05-17T01:19:27.715Z,98412.39
2023-05-17T01:21:01.959Z,98403.13
2023-05-17T01:22:47.413Z,98404.26
2023-05-17T01:24:36.160Z,98401.66
2023-05-17T01:26:09.686Z,98402.09
2023-05-17T01:27:45.558Z,98401.60
2023-05-17T01:29:31.074Z,98401.35
2023-05-17T01:31:02.623Z,98404.01
2023-05-17T01:32:36.112Z,98407.41
2023-05-17T01:34:09.571Z,98410.86
2023-05-17T01:35:45.381Z,98410.26
2023-05-17T01:37:30.450Z,98413.02
2023-05-17T01:39:06.397Z,98409.41
2023-05-17T01:40:53.585Z,98403.88
2023-05-17T01:42:27.886Z,98414.23
2023-05-17T01:44:03.024Z,98416.47
2023-05-17T01:45:56.239Z,98416.39
2023-05-17T01:47:35.641Z,98419.17
2023-05-17T01:49:16.361Z,98422.16
2023-05-17T01:51:04.823Z,98421.41
2023-05-17T01:52:43.587Z,98421.45
2023-05-17T01:54:25.580Z,98420.11
2023-05-17T01:56:01.167Z,98421.69
2023-05-17T01:57:46.548Z,98423.44
2023-05-17T01:59:33.607Z,98427.27
2023-05-17T02:01:00.327Z,98434.16
2023-05-17T02:02:53.852Z,98429.40
2023-05-17T02:04:23.491Z,98436.39
2023-05-17T02:05:59.382Z,98431.20
2023-05-17T02:07:34.740Z,98435.44
2023-05-17T02:09:08.807Z,98424.56
2023-05-17T02:10:40.117Z,98428.48
2023-05-17T02:12:28.637Z,98420.60
2023-05-17T02:13:53.601Z,98423.59
2023-05-17T02:15:22.332Z,98422.72
2023-05-17T02:17:07.748Z,98423.89
2023-05-17T02:18:41.379Z,98427.57
2023-05-17T02:20:15.196Z,98429.85
2023-05-17T02:21:48.487Z,98413.44
2023-05-17T02:23:29.301Z,98436.48
2023-05-17T02:25:05.120Z,98434.65
2023-05-17T02:26:50.429Z,98438.77
2023-05-17T02:28:23.342Z,98445.56
2023-05-17T02:30:05.067Z,98440.45
2023-05-17T02:31:42.344Z,98440.31
2023-05-17T02:33:29.731Z,98435.94
2023-05-17T02:35:15.104Z,98434.18
2023-05-17T02:36:49.241Z,98434.30
2023-05-17T02:38:25.403Z,98428.08
2023-05-17T02:40:10.912Z,98429.30
2023-05-17T02:41:44.239Z,98432.83
2023-05-17T02:43:08.399Z,98434.78
2023-05-17T02:44:54.620Z,98437.39
2023-05-17T02:46:31.124Z,98443.30
2023-05-17T02:48:21.171Z,98444.16
2023-05-17T02:49:58.003Z,98438.52
2023-05-17T02:51:36.663Z,98445.20
2023-05-17T02:53:09.995Z,98451.00
2023-05-17T02:54:47.694Z,98452.41
2023-05-17T02:56:23.870Z,98459.29
2023-05-17T02:57:58.993Z,98460.58
2023-05-17T02:59:32.401Z,98455.21
2023-05-17T03:01:09.440Z,98459.11
2023-05-17T03:02:42.877Z,98457.69
2023-05-17T03:04:23.536Z,98463.21
2023-05-17T03:05:59.210Z,98464.04
2023-05-17T03:07:40.034Z,98454.30
2023-05-17T03:09:13.484Z,98460.34
2023-05-17T03:10:35.523Z,98457.06
2023-05-17T03:11:57.676Z,98460.39
2023-05-17T03:13:34.634Z,98460.38
2023-05-17T03:15:19.657Z,98461.69
2023-05-17T03:17:05.064Z,98459.38
2023-05-17T03:18:43.934Z,98455.52
2023-05-17T03:20:17.408Z,98463.25
2023-05-17T03:22:02.865Z,98461.81
2023-05-17T03:23:37.892Z,98464.21
2023-05-17T03:24:59.554Z,98465.33
2023-05-17T03:26:33.433Z,98469.52
2023-05-17T03:28:07.505Z,98471.26
2023-05-17T03:29:41.096Z,98466.31
2023-05-17T03:31:26.448Z,98469.35
2023-05-17T03:33:02.955Z,98475.89
2023-05-17T03:34:48.595Z,98476.54
2023-05-17T03:36:37.245Z,98475.34
2023-05-17T03:38:13.512Z,98479.23
2023-05-17T03:39:58.805Z,98481.00
2023-05-17T03:41:52.365Z,98482.73
2023-05-17T03:43:38.032Z,98482.54
2023-05-17T03:45:15.743Z,98483.53
2023-05-17T03:47:00.815Z,98491.79
2023-05-17T03:48:46.445Z,98484.66
2023-05-17T03:50:20.367Z,98486.48
2023-05-17T03:51:54.113Z,98488.79
2023-05-17T03:53:23.539Z,98484.90
2023-05-17T03:54:59.103Z,98487.92
2023-05-17T03:56:32.456Z,98487.42
2023-05-17T03:58:08.768Z,98482.39
2023-05-17T03:59:46.587Z,98486.64
2023-05-17T04:01:21.613Z,98484.45
2023-05-17T04:02:50.830Z,98484.58
2023-05-17T04:04:33.510Z,98481.06
2023-05-17T04:06:07.687Z,98483.58
2023-05-17T04:07:29.541Z,98485.11
2023-05-17T04:09:15.082Z,98489.08
2023-05-17T04:10:48.423Z,98493.14
2023-05-17T04:12:22.504Z,98498.23
2023-05-17T04:13:51.751Z,98500.42
2023-05-17T04:15:32.048Z,98504.09
2023-05-17T04:16:57.257Z,98505.80
2023-05-17T04:18:21.173Z,98508.73
2023-05-17T04:19:43.185Z,98505.55
2023-05-17T04:21:24.120Z,98506.82
2023-05-17T04:23:05.401Z,98508.43
2023-05-17T04:24:40.184Z,98514.25
2023-05-17T04:26:13.943Z,98517.33
2023-05-17T04:27:59.414Z,98523.08
2023-05-17T04:29:21.676Z,98527.41
2023-05-17T04:31:06.920Z,98521.31
2023-05-17T04:32:31.331Z,98531.02
2023-05-17T04:34:05.222Z,98529.09
2023-05-17T04:35:27.004Z,98527.04
2023-05-17T04:36:51.571Z,98525.51
2023-05-17T04:38:23.049Z,98523.63
2023-05-17T04:39:58.643Z,98519.56
2023-05-17T04:41:34.627Z,98514.15
2023-05-17T04:43:20.366Z,98513.20
2023-05-17T04:44:46.919Z,98513.98
2023-05-17T04:46:16.338Z,98516.51
2023-05-17T04:47:53.125Z,98517.33
2023-05-17T04:49:24.607Z,98513.05
2023-05-17T04:50:54.154Z,98514.59
2023-05-17T04:52:40.152Z,98506.71
2023-05-17T04:54:14.385Z,98505.73
2023-05-17T04:55:48.675Z,98505.44
2023-05-17T04:57:24.616Z,98500.76
2023-05-17T04:59:09.391Z,98500.97
2023-05-17T05:00:33.820Z,98492.09
2023-05-17T05:02:20.798Z,98496.35
2023-05-17T05:04:06.628Z,98490.13
2023-05-17T05:05:50.072Z,98496.30
2023-05-17T05:07:27.037Z,98503.13
2023-05-17T05:08:56.687Z,98504.50
2023-05-17T05:10:20.801Z,98514.23
2023-05-17T05:11:45.258Z,98494.80
2023-05-17T05:13:26.229Z,98518.48
2023-05-17T05:15:01.233Z,98519.63
2023-05-17T05:16:53.593Z,98523.63
2023-05-17T05:18:26.995Z,98526.98
2023-05-17T05:20:07.789Z,98519.65
2023-05-17T05:21:41.449Z,98534.31
2023-05-17T05:23:26.328Z,98537.81
2023-05-17T05:25:02.689Z,98544.64
2023-05-17T05:26:53.545Z,98542.23
2023-05-17T05:28:38.314Z,98541.87
2023-05-17T05:30:23.737Z,98538.86
2023-05-17T05:32:04.821Z,98536.57
2023-05-17T05:33:56.584Z,98536.89
2023-05-17T05:35:37.274Z,98530.15
2023-05-17T05:37:10.596Z,98531.20
2023-05-17T05:38:56.323Z,98526.89
2023-05-17T05:40:29.893Z,98525.83
2023-05-17T05:41:56.404Z,98528.30
2023-05-17T05:43:37.215Z,98530.12
2023-05-17T05:45:20.192Z,98533.77
2023-05-17T05:47:00.150Z,98534.50
2023-05-17T05:48:45.427Z,98538.71
2023-05-17T05:50:17.289Z,98535.70
2023-05-17T05:51:53.587Z,98548.36
2023-05-17T05:53:26.984Z,98549.96
2023-05-17T05:55:03.598Z,98552.48
2023-05-17T05:56:27.489Z,98552.48
2023-05-17T05:58:10.046Z,98552.13
2023-05-17T05:59:56.075Z,98554.65
2023-05-17T06:01:34.386Z,98554.16
2023-05-17T06:03:01.081Z,98555.58
2023-05-17T06:04:43.787Z,98562.20
2023-05-17T06:06:06.181Z,98561.74
2023-05-17T06:07:28.017Z,98566.73
2023-05-17T06:09:13.672Z,98566.36
2023-05-17T06:10:42.821Z,98565.63
2023-05-17T06:12:28.112Z,98563.19
2023-05-17T06:14:13.167Z,98569.45
2023-05-17T06:15:58.599Z,98573.92
2023-05-17T06:17:35.082Z,98582.81
2023-05-17T06:19:21.338Z,98584.81
2023-05-17T06:20:57.089Z,98591.14
2023-05-17T06:22:30.152Z,98592.12
2023-05-17T06:24:10.813Z,98594.98
2023-05-17T06:25:44.723Z,98592.72
2023-05-17T06:27:21.298Z,98592.88
2023-05-17T06:28:51.092Z,98586.89
2023-05-17T06:30:32.587Z,98583.45
2023-05-17T06:32:06.585Z,98583.65
2023-05-17T06:33:48.225Z,98578.17
2023-05-17T06:35:30.145Z,98576.95
2023-05-17T06:37:18.186Z,98577.47
2023-05-17T06:38:53.899Z,98582.34
2023-05-17T06:40:29.349Z,98585.01
2023-05-17T06:42:14.749Z,98589.23
2023-05-17T06:43:48.330Z,98587.09
2023-05-17T06:45:32.337Z,98591.41
2023-05-17T06:47:13.912Z,98596.35
2023-05-17T06:48:54.494Z,98601.80
2023-05-17T06:50:29.340Z,98607.23
2023-05-17T06:52:03.485Z,98606.13
2023-05-17T06:53:37.001Z,98605.34
2023-05-17T06:55:22.439Z,98602.54
2023-05-17T06:57:07.323Z,98606.97
2023-05-17T06:58:40.641Z,98612.33
2023-05-17T07:00:06.380Z,98618.67
2023-05-17T07:01:39.839Z,98625.18
2023-05-17T07:03:25.327Z,98625.46
2023-05-17T07:05:01.477Z,98625.91
2023-05-17T07:06:35.106Z,98629.35
2023-05-17T07:08:09.246Z,98631.20
2023-05-17T07:09:42.589Z,98637.48
2023-05-17T07:11:16.277Z,98641.89
2023-05-17T07:12:42.864Z,98647.47
2023-05-17T07:14:23.320Z,98644.08
2023-05-17T07:15:45.175Z,98642.60
2023-05-17T07:17:08.971Z,98644.58
2023-05-17T07:18:32.936Z,98643.86
2023-05-17T07:20:06.932Z,98643.92
2023-05-17T07:21:54.334Z,98649.97
2023-05-17T07:23:20.628Z,98653.02
2023-05-17T07:24:52.299Z,98648.59
2023-05-17T07:26:32.667Z,98652.34
2023-05-17T07:28:18.463Z,98655.91
2023-05-17T07:30:03.527Z,98659.52
2023-05-17T07:31:48.916Z,98659.34
2023-05-17T07:33:22.370Z,98662.33
2023-05-17T07:35:07.254Z,98657.59
2023-05-17T07:36:43.287Z,98656.30
2023-05-17T07:38:12.877Z,98663.51
2023-05-17T07:39:46.091Z,98659.46
2023-05-17T07:41:21.674Z,98660.94
2023-05-17T07:42:43.538Z,98653.95
2023-05-17T07:44:10.092Z,98659.87
2023-05-17T07:45:50.598Z,98656.28
2023-05-17T07:47:17.152Z,98657.02
2023-05-17T07:48:58.868Z,98657.64
2023-05-17T07:50:33.749Z,98659.81
2023-05-17T07:51:58.305Z,98656.11
2023-05-17T07:53:22.370Z,98657.80
2023-05-17T07:54:58.372Z,98653.51
2023-05-17T07:56:34.020Z,98655.81
2023-05-17T07:57:58.490Z,98653.47
2023-05-17T07:59:22.541Z,98662.52
2023-05-17T08:00:58.498Z,98660.20
2023-05-17T08:02:34.414Z,98659.42
2023-05-17T08:04:19.913Z,98659.98
2023-05-17T08:05:41.878Z,98656.89
2023-05-17T08:07:17.701Z,98654.75
2023-05-17T08:08:54.155Z,98657.38
2023-05-17T08:10:36.326Z,98656.64
2023-05-17T08:12:12.736Z,98653.92
2023-05-17T08:13:46.159Z,98650.20
2023-05-17T08:15:19.830Z,98653.80
2023-05-17T08:17:00.811Z,98655.34
2023-05-17T08:18:38.918Z,98648.67
2023-05-17T08:20:10.165Z,98652.66
2023-05-17T08:21:45.770Z,98655.48
2023-05-17T08:23:26.901Z,98659.86
2023-05-17T08:25:00.686Z,98657.48
2023-05-17T08:26:36.262Z,98660.61
2023-05-17T08:28:21.196Z,98663.20
2023-05-17T08:29:54.850Z,98665.86
2023-05-17T08:31:21.103Z,98664.68
2023-05-17T08:32:57.285Z,98663.16
2023-05-17T08:34:31.003Z,98665.12
2023-05-17T08:36:08.005Z,98667.56
2023-05-17T08:37:43.462Z,98671.59
2023-05-17T08:39:17.296Z,98673.30
2023-05-17T08:40:58.646Z,98676.36
2023-05-17T08:42:34.372Z,98679.98
2023-05-17T08:44:06.226Z,98682.05
2023-05-17T08:45:28.238Z,98683.75
2023-05-17T08:47:10.938Z,98680.86
2023-05-17T08:48:55.666Z,98678.59
2023-05-17T08:50:25.176Z,98679.00
2023-05-17T08:52:10.575Z,98678.08
2023-05-17T08:53:47.077Z,98684.49
2023-05-17T08:55:31.054Z,98685.36
2023-05-17T08:57:04.713Z,98691.54
2023-05-17T08:58:52.273Z,98694.35
2023-05-17T09:00:22.572Z,98697.30
2023-05-17T09:01:54.747Z,98696.71
2023-05-17T09:03:33.832Z,98699.36
2023-05-17T09:04:58.635Z,98701.73
2023-05-17T09:06:28.195Z,98699.48
2023-05-17T09:08:13.732Z,98699.44
2023-05-17T09:11:35.834Z,98702.39
2023-05-17T09:13:24.892Z,98705.46
2023-05-17T09:15:09.927Z,98708.06
2023-05-17T09:17:03.716Z,98711.59
2023-05-17T09:18:25.361Z,98712.27
2023-05-17T09:19:59.261Z,98711.66
2023-05-17T09:21:34.595Z,98712.37
2023-05-17T09:23:15.561Z,98712.89
2023-05-17T09:24:49.208Z,98713.53
2023-05-17T09:26:39.861Z,98706.55
2023-05-17T09:28:11.865Z,98708.16
2023-05-17T09:29:47.585Z,98700.89
2023-05-17T09:31:39.355Z,98700.29
2023-05-17T09:33:17.728Z,98698.66
2023-05-17T09:34:52.911Z,98699.79
2023-05-17T09:36:26.292Z,98701.10
2023-05-17T09:38:00.268Z,98703.77
2023-05-17T09:39:45.325Z,98704.95
2023-05-17T09:41:20.960Z,98703.08
2023-05-17T09:42:56.506Z,98703.31
2023-05-17T09:44:36.877Z,98707.89
2023-05-17T09:46:01.453Z,98700.89
2023-05-17T09:47:37.625Z,98716.33
2023-05-17T09:49:23.194Z,98718.08
2023-05-17T09:50:56.693Z,98720.87
2023-05-17T09:52:45.688Z,98720.05
2023-05-17T09:54:07.785Z,98719.34
2023-05-17T09:55:41.441Z,98722.14
2023-05-17T09:57:19.353Z,98717.69
2023-05-17T09:58:52.859Z,98719.73
2023-05-17T10:00:26.326Z,98721.98
2023-05-17T10:01:59.862Z,98728.34
2023-05-17T10:03:24.373Z,98729.22
2023-05-17T10:04:46.175Z,98725.06
2023-05-17T10:06:09.880Z,98728.47
2023-05-17T10:07:56.943Z,98725.56
2023-05-17T10:09:46.076Z,98721.95
2023-05-17T10:11:21.901Z,98721.52
2023-05-17T10:12:55.991Z,98722.82
2023-05-17T10:14:29.427Z,98717.84
2023-05-17T10:16:05.634Z,98715.67
2023-05-17T10:17:39.401Z,98719.20
2023-05-17T10:19:20.836Z,98715.30
2023-05-17T10:20:45.300Z,98719.73
2023-05-17T10:22:23.062Z,98711.52
2023-05-17T10:23:47.749Z,98708.92
2023-05-17T10:25:23.252Z,98708.42
2023-05-17T10:26:56.969Z,98708.16
2023-05-17T10:28:18.560Z,98713.19
2023-05-17T10:29:52.257Z,98715.80
2023-05-17T10:31:16.245Z,98708.38
2023-05-17T10:32:49.169Z,98709.42
2023-05-17T10:34:11.973Z,98705.19
2023-05-17T10:35:45.598Z,98704.22
2023-05-17T10:37:16.934Z,98698.74
2023-05-17T10:38:42.940Z,98707.86
2023-05-17T10:40:24.854Z,98711.38
2023-05-17T10:41:47.135Z,98712.84
2023-05-17T10:43:22.780Z,98709.25
2023-05-17T10:44:44.801Z,98712.39
2023-05-17T10:46:39.131Z,98711.02
2023-05-17T10:48:25.689Z,98714.79
2023-05-17T10:49:50.051Z,98711.48
2023-05-17T10:51:28.796Z,98713.23
2023-05-17T10:53:04.871Z,98711.58
2023-05-17T10:54:39.217Z,98712.52
2023-05-17T10:56:15.901Z,98710.67
2023-05-17T10:58:09.233Z,98711.41
2023-05-17T10:59:38.490Z,98716.16
2023-05-17T11:01:20.164Z,98714.36
2023-05-17T11:02:53.892Z,98714.88
2023-05-17T11:04:38.881Z,98719.23
2023-05-17T11:06:25.883Z,98715.14
2023-05-17T11:07:59.564Z,98720.55
2023-05-17T11:09:38.066Z,98723.73
2023-05-17T11:11:12.112Z,98718.58
2023-05-17T11:12:46.901Z,98724.34
2023-05-17T11:14:22.769Z,98722.66
2023-05-17T11:15:46.973Z,98725.97
2023-05-17T11:17:18.798Z,98724.38
2023-05-17T11:18:43.261Z,98723.85
2023-05-17T11:20:24.307Z,98724.70
2023-05-17T11:21:48.124Z,98723.87
2023-05-17T11:23:12.660Z,98726.36
2023-05-17T11:24:43.628Z,98727.41
2023-05-17T11:26:15.403Z,98731.05
2023-05-17T11:27:40.719Z,98734.94
2023-05-17T11:29:14.579Z,98734.76
2023-05-17T11:30:52.199Z,98731.56
2023-05-17T11:32:25.164Z,98730.98
2023-05-17T11:33:49.541Z,98728.81
2023-05-17T11:35:14.648Z,98728.63
2023-05-17T11:36:49.962Z,98729.46
2023-05-17T11:38:17.085Z,98734.73
2023-05-17T11:39:50.713Z,98735.64
2023-05-17T11:41:26.802Z,98737.36
2023-05-17T11:43:12.602Z,98739.27
2023-05-17T11:44:38.947Z,98736.02
2023-05-17T11:46:19.108Z,98737.27
2023-05-17T11:47:53.497Z,98726.13
2023-05-17T11:49:33.887Z,98740.72
2023-05-17T11:51:16.361Z,98742.70
2023-05-17T11:53:01.609Z,98744.20
2023-05-17T11:54:25.645Z,98747.77
2023-05-17T11:55:47.506Z,98751.02
2023-05-17T11:57:30.455Z,98747.41
2023-05-17T11:59:16.176Z,98745.66
2023-05-17T12:00:49.916Z,98741.13
2023-05-17T12:02:23.076Z,98738.61
2023-05-17T12:03:56.167Z,98741.30
2023-05-17T12:05:17.636Z,98749.18
2023-05-17T12:06:53.770Z,98744.54
2023-05-17T12:08:18.668Z,98751.55
2023-05-17T12:09:42.577Z,98750.66
2023-05-17T12:11:16.815Z,98753.42
2023-05-17T12:12:38.546Z,98747.48
2023-05-17T12:14:04.959Z,98753.52
2023-05-17T12:15:26.981Z,98753.52
2023-05-17T12:16:49.100Z,98762.10
2023-05-17T12:18:20.740Z,98764.40
2023-05-17T12:19:42.619Z,98769.48
2023-05-17T12:21:23.674Z,98769.55
2023-05-17T12:22:57.284Z,98769.93
2023-05-17T12:24:37.564Z,98776.84
2023-05-17T12:26:11.303Z,98778.33
2023-05-17T12:27:47.052Z,98778.23
2023-05-17T12:29:23.078Z,98779.17
2023-05-17T12:30:52.300Z,98776.89
2023-05-17T12:32:17.005Z,98781.18
2023-05-17T12:33:53.622Z,98784.64
2023-05-17T12:35:18.510Z,98787.59
2023-05-17T12:36:47.664Z,98790.67
2023-05-17T12:38:38.105Z,98789.62
2023-05-17T12:40:19.952Z,98787.66
2023-05-17T12:41:56.350Z,98790.08
2023-05-17T12:43:32.283Z,98791.85
2023-05-17T12:45:14.241Z,98790.15
2023-05-17T12:46:54.866Z,98791.10
2023-05-17T12:48:28.473Z,98791.48
2023-05-17T12:49:50.676Z,98789.11
2023-05-17T12:51:32.542Z,98788.77
2023-05-17T12:53:02.409Z,98790.67
2023-05-17T12:54:42.991Z,98790.13
2023-05-17T12:56:24.163Z,98785.14
2023-05-17T12:57:53.813Z,98791.72
2023-05-17T12:59:40.580Z,98787.56
2023-05-17T13:01:19.098Z,98784.50
2023-05-17T13:02:42.315Z,98782.71
2023-05-17T13:04:10.130Z,98784.92
2023-05-17T13:05:34.349Z,98782.54
2023-05-17T13:06:58.397Z,98783.75
2023-05-17T13:08:39.216Z,98780.48
2023-05-17T13:10:13.149Z,98784.13
2023-05-17T13:11:41.301Z,98770.70
2023-05-17T13:13:03.041Z,98781.47
2023-05-17T13:14:27.278Z,98785.17
2023-05-17T13:15:49.106Z,98783.87
2023-05-17T13:17:22.852Z,98785.27
2023-05-17T13:18:56.352Z,98787.69
2023-05-17T13:20:37.320Z,98788.73
2023-05-17T13:22:04.243Z,98781.73
2023-05-17T13:23:35.546Z,98777.90
2023-05-17T13:25:09.197Z,98781.87
2023-05-17T13:26:49.998Z,98781.85
2023-05-17T13:28:38.815Z,98784.88
2023-05-17T13:30:15.909Z,98782.28
2023-05-17T13:31:48.903Z,98781.04
2023-05-17T13:33:10.876Z,98782.66
2023-05-17T13:34:46.985Z,98786.80
2023-05-17T13:36:08.933Z,98790.50
2023-05-17T13:37:53.849Z,98797.16
2023-05-17T13:39:27.139Z,98803.17
2023-05-17T13:41:00.225Z,98788.01
2023-05-17T13:42:43.104Z,98804.73
2023-05-17T13:44:17.144Z,98801.08
2023-05-17T13:45:54.086Z,98799.05
2023-05-17T13:47:16.570Z,98804.66
2023-05-17T13:48:39.793Z,98806.54
2023-05-17T13:50:17.252Z,98807.76
2023-05-17T13:51:41.618Z,98802.59
2023-05-17T13:53:22.538Z,98820.37
2023-05-17T13:54:46.940Z,98823.04
2023-05-17T13:56:22.966Z,98827.79
2023-05-17T13:57:52.196Z,98825.95
2023-05-17T13:59:16.176Z,98827.77
2023-05-17T14:00:49.313Z,98824.77
2023-05-17T14:02:26.194Z,98828.25
2023-05-17T14:03:56.210Z,98830.40
2023-05-17T14:05:45.396Z,98838.98
2023-05-17T14:07:14.999Z,98841.02
2023-05-17T14:08:36.642Z,98843.64
2023-05-17T14:10:01.027Z,98844.80
2023-05-17T14:11:46.227Z,98847.73
2023-05-17T14:13:26.194Z,98854.64
2023-05-17T14:14:59.618Z,98860.21
2023-05-17T14:16:26.170Z,98859.89
2023-05-17T14:17:50.277Z,98856.77
2023-05-17T14:19:20.204Z,98859.90
2023-05-17T14:20:44.220Z,98861.65
2023-05-17T14:22:18.261Z,98870.98
2023-05-17T14:23:52.101Z,98870.05
2023-05-17T14:25:14.667Z,98877.42
2023-05-17T14:26:47.747Z,98878.77
2023-05-17T14:28:12.167Z,98869.79
2023-05-17T14:29:35.684Z,98879.75
2023-05-17T14:31:07.455Z,98878.45
2023-05-17T14:32:31.573Z,98880.80
2023-05-17T14:34:12.442Z,98879.60
2023-05-17T14:35:45.780Z,98886.87
2023-05-17T14:37:07.782Z,98890.70
2023-05-17T14:38:43.332Z,98893.16
2023-05-17T14:40:17.114Z,98894.73
2023-05-17T14:41:39.344Z,98898.73
2023-05-17T14:43:08.361Z,98904.67
2023-05-17T14:44:39.694Z,98905.96
2023-05-17T14:46:01.925Z,98907.05
2023-05-17T14:47:36.952Z,98908.92
2023-05-17T14:49:06.904Z,98908.33
2023-05-17T14:50:41.103Z,98909.98
2023-05-17T14:52:10.574Z,98910.68
2023-05-17T14:53:43.832Z,98912.85
2023-05-17T14:55:16.284Z,98902.42
2023-05-17T14:56:49.801Z,98913.45
2023-05-17T14:58:30.617Z,98917.79
2023-05-17T15:00:11.561Z,98921.05
2023-05-17T15:01:45.040Z,98926.28
2023-05-17T15:03:26.802Z,98924.88
2023-05-17T15:05:03.639Z,98928.53
2023-05-17T15:06:27.592Z,98929.96
2023-05-17T15:07:51.257Z,98925.30
2023-05-17T15:09:18.151Z,98912.88
2023-05-17T15:10:58.915Z,98928.60
2023-05-17T15:12:20.841Z,98924.38
2023-05-17T15:13:44.865Z,98924.12
2023-05-17T15:15:25.506Z,98924.41
2023-05-17T15:16:47.624Z,98926.33
2023-05-17T15:18:14.279Z,98927.52
2023-05-17T15:19:38.374Z,98929.59
2023-05-17T15:21:12.194Z,98929.15
2023-05-17T15:22:36.622Z,98932.63
2023-05-17T15:24:14.387Z,98930.55
2023-05-17T15:26:00.261Z,98924.68
2023-05-17T15:27:21.702Z,98926.91
2023-05-17T15:28:55.588Z,98924.13
2023-05-17T15:30:34.119Z,98928.83
2023-05-17T15:31:56.673Z,98926.90
2023-05-17T15:33:32.099Z,98926.05
2023-05-17T15:35:16.470Z,98928.23
2023-05-17T15:36:49.602Z,98927.91
2023-05-17T15:38:13.872Z,98924.52
2023-05-17T15:39:37.592Z,98924.70
2023-05-17T15:41:11.217Z,98928.48
2023-05-17T15:42:44.869Z,98927.70
2023-05-17T15:44:25.711Z,98928.95
2023-05-17T15:45:59.308Z,98934.77
2023-05-17T15:47:23.839Z,98934.93
2023-05-17T15:48:58.013Z,98930.48
2023-05-17T15:50:32.018Z,98935.52
2023-05-17T15:52:05.438Z,98932.86
2023-05-17T15:53:38.952Z,98930.34
2023-05-17T15:55:10.867Z,98932.27
2023-05-17T15:56:42.169Z,98922.73
2023-05-17T15:58:12.027Z,98935.09
2023-05-17T15:59:45.480Z,98942.63
2023-05-17T16:01:14.803Z,98945.67
2023-05-17T16:02:51.127Z,98947.73
2023-05-17T16:04:22.839Z,98947.75
2023-05-17T16:05:47.424Z,98952.14
2023-05-17T16:07:32.965Z,98950.53
2023-05-17T16:08:54.913Z,98956.21
2023-05-17T16:10:28.227Z,98956.67
2023-05-17T16:11:57.655Z,98955.96
2023-05-17T16:13:43.113Z,98957.78
2023-05-17T16:15:19.869Z,98964.33
2023-05-17T16:16:55.355Z,98958.21
2023-05-17T16:18:19.349Z,98956.61
2023-05-17T16:19:45.807Z,98965.13
2023-05-17T16:21:07.998Z,98964.92
2023-05-17T16:22:53.705Z,98968.80
2023-05-17T16:24:27.888Z,98963.67
2023-05-17T16:26:01.574Z,98969.15
2023-05-17T16:27:23.428Z,98970.79
2023-05-17T16:29:04.976Z,98968.41
2023-05-17T16:30:29.422Z,98975.32
2023-05-17T16:32:03.065Z,98976.05
2023-05-17T16:33:47.894Z,98974.02
2023-05-17T16:35:22.966Z,98975.22
2023-05-17T16:36:56.364Z,98979.73
2023-05-17T16:38:29.941Z,98980.73
2023-05-17T16:39:54.351Z,98982.29
2023-05-17T16:41:31.271Z,98992.31
2023-05-17T16:43:07.062Z,98980.51
2023-05-17T16:44:48.206Z,98998.21
2023-05-17T16:46:12.342Z,98998.94
2023-05-17T16:47:36.268Z,99001.97
2023-05-17T16:49:17.648Z,98998.29
2023-05-17T16:50:54.162Z,99003.11
2023-05-17T16:52:30.331Z,98986.29
2023-05-17T16:54:04.191Z,99009.46
2023-05-17T16:55:27.992Z,99006.11
2023-05-17T16:56:49.605Z,99007.54
2023-05-17T16:58:36.984Z,99008.14
2023-05-17T17:00:10.663Z,99009.44
2023-05-17T17:01:36.465Z,99014.05
2023-05-17T17:03:10.280Z,99017.02
2023-05-17T17:04:46.459Z,99023.28
2023-05-17T17:06:08.738Z,99009.14
2023-05-17T17:07:42.560Z,99022.89
2023-05-17T17:09:19.446Z,99025.54
2023-05-17T17:10:41.524Z,99013.21
2023-05-17T17:12:24.581Z,99025.33
2023-05-17T17:14:19.278Z,99024.23
2023-05-17T17:15:41.182Z,99028.15
2023-05-17T17:17:02.883Z,99028.92
2023-05-17T17:18:48.324Z,99031.77
2023-05-17T17:20:33.302Z,99031.61
2023-05-17T17:22:14.377Z,99035.16
2023-05-17T17:23:48.306Z,99038.02
2023-05-17T17:25:24.506Z,99041.02
2023-05-17T17:26:57.740Z,99037.08
2023-05-17T17:28:31.513Z,99045.73
2023-05-17T17:30:04.947Z,99044.54
2023-05-17T17:31:38.089Z,99045.66
2023-05-17T17:33:16.583Z,99048.92
2023-05-17T17:34:38.705Z,99047.17
2023-05-17T17:36:05.173Z,99050.11
2023-05-17T17:37:38.657Z,99051.69
2023-05-17T17:39:14.954Z,99053.92
2023-05-17T17:40:51.124Z,99055.52
2023-05-17T17:42:32.291Z,99056.34
2023-05-17T17:43:54.313Z,99058.73
2023-05-17T17:45:18.707Z,99056.58
2023-05-17T17:46:42.760Z,99056.69
2023-05-17T17:48:07.245Z,99058.15
2023-05-17T17:49:35.941Z,99057.41
2023-05-17T17:51:00.540Z,99060.15
2023-05-17T17:52:36.678Z,99061.13
2023-05-17T17:53:58.363Z,99062.23
2023-05-17T17:55:19.938Z,99064.47
2023-05-17T17:57:05.008Z,99051.82
2023-05-17T17:58:29.889Z,99069.59
2023-05-17T17:59:51.804Z,99067.80
2023-05-17T18:01:25.560Z,99066.98
2023-05-17T18:02:47.192Z,99069.55
2023-05-17T18:04:21.262Z,99058.34
2023-05-17T18:05:57.050Z,99069.98
2023-05-17T18:07:36.038Z,99069.73
2023-05-17T18:09:09.275Z,99073.70
2023-05-17T18:10:53.899Z,99072.50
2023-05-17T18:12:27.555Z,99069.90
2023-05-17T18:14:02.506Z,99074.05
2023-05-17T18:15:47.265Z,99072.67
2023-05-17T18:17:10.204Z,99069.69
2023-05-17T18:18:34.195Z,99071.21
2023-05-17T18:19:56.005Z,99073.85
2023-05-17T18:21:29.740Z,99074.66
2023-05-17T18:23:03.033Z,99075.84
2023-05-17T18:24:36.683Z,99080.30
2023-05-17T18:26:10.598Z,99081.61
2023-05-17T18:27:43.733Z,99082.43
2023-05-17T18:29:19.453Z,99085.50
2023-05-17T18:31:00.356Z,99087.16
2023-05-17T18:32:34.105Z,99089.56
2023-05-17T18:34:15.073Z,99089.90